Time;durP1;ratioP1;P1;durP2;ratioP2;P2;SDS_P1;SDS_P2;PMS_P1;PMS_P2;Temp;Humidity;BMP_temperature;BMP_pressure;BME280_temperature;BME280_humidity;BME280_pressure;Samples;Min_cycle;Max_cycle;Signal;HPM_P1;HPM_P2
2022/02/24 00:02:18;;;;;;;;;8.50;6.00;;;;;12.78;100.00;101598.63;5058499;28;45492;-81
2022/02/24 00:04:45;;;;;;;;;7.75;6.75;;;;;12.74;100.00;101588.91;5057433;28;45433;-81
2022/02/24 00:07:10;;;;;;;;;6.00;5.50;;;;;12.74;100.00;101592.38;4982343;28;46060;-81
2022/02/24 00:09:36;;;;;;;;;6.75;6.75;;;;;12.74;100.00;101591.50;5033512;28;45256;-80
2022/02/24 00:12:03;;;;;;;;;9.75;6.75;;;;;12.70;100.00;101578.34;5063822;28;45350;-81
2022/02/24 00:14:29;;;;;;;;;12.50;8.25;;;;;12.71;100.00;101581.84;5071806;28;45484;-81
2022/02/24 00:16:54;;;;;;;;;5.50;5.00;;;;;12.70;100.00;101586.13;5047137;28;45625;-81
2022/02/24 00:19:20;;;;;;;;;6.75;6.75;;;;;12.68;100.00;101572.22;4975837;28;45300;-81
2022/02/24 00:21:45;;;;;;;;;9.00;7.75;;;;;12.70;100.00;101575.75;5051002;28;45788;-81
2022/02/24 00:24:11;;;;;;;;;6.50;6.00;;;;;12.71;100.00;101571.47;5078960;28;45404;-81
2022/02/24 00:26:37;;;;;;;;;6.75;6.00;;;;;12.70;100.00;101572.28;5069879;28;45252;-81
2022/02/24 00:29:03;;;;;;;;;7.00;7.00;;;;;12.70;100.00;101574.88;5075609;28;45375;-81
2022/02/24 00:31:29;;;;;;;;;7.00;7.00;;;;;12.71;100.00;101574.06;5072818;28;45516;-82
2022/02/24 00:33:54;;;;;;;;;7.00;7.00;;;;;12.72;100.00;101565.44;5058912;28;45497;-81
2022/02/24 00:36:20;;;;;;;;;6.75;6.50;;;;;12.67;100.00;101561.72;5078382;28;46164;-81
2022/02/24 00:38:45;;;;;;;;;12.50;8.00;;;;;12.69;100.00;101565.28;5077401;28;45314;-81
2022/02/24 00:41:11;;;;;;;;;7.50;7.50;;;;;12.66;100.00;101559.94;5055383;28;45363;-81
2022/02/24 00:43:37;;;;;;;;;11.50;8.00;;;;;12.64;100.00;101553.78;5077793;28;45191;-81
2022/02/24 00:46:03;;;;;;;;;9.25;8.25;;;;;12.63;100.00;101563.28;5067175;28;45448;-81
2022/02/24 00:48:28;;;;;;;;;8.50;7.75;;;;;12.63;100.00;101544.22;5078337;28;45242;-81
2022/02/24 00:50:54;;;;;;;;;7.75;6.00;;;;;12.64;100.00;101556.38;5022947;28;45249;-81
2022/02/24 00:53:20;;;;;;;;;8.00;8.00;;;;;12.64;100.00;101548.56;4982511;28;45359;-82
2022/02/24 00:55:46;;;;;;;;;7.50;7.25;;;;;12.64;100.00;101540.78;4974196;28;46773;-81
2022/02/24 00:58:11;;;;;;;;;11.75;10.00;;;;;12.63;100.00;101536.44;4977462;28;45362;-81
2022/02/24 01:00:37;;;;;;;;;12.50;11.00;;;;;12.66;100.00;101532.28;5004220;28;45361;-81
2022/02/24 01:03:03;;;;;;;;;13.25;11.00;;;;;12.66;100.00;101531.34;5077490;28;45505;-81
2022/02/24 01:05:28;;;;;;;;;10.00;8.00;;;;;12.64;100.00;101522.59;5078619;28;45476;-81
2022/02/24 01:07:54;;;;;;;;;9.00;9.00;;;;;12.66;100.00;101524.47;5026833;28;45454;-81
2022/02/24 01:10:19;;;;;;;;;11.25;11.00;;;;;12.65;100.00;101517.50;5003118;28;45478;-81
2022/02/24 01:12:45;;;;;;;;;9.50;8.75;;;;;12.66;100.00;101514.09;5011934;28;45256;-81
2022/02/24 01:15:12;;;;;;;;;8.00;8.00;;;;;12.63;100.00;101510.44;4982140;28;45745;-82
2022/02/24 01:17:43;;;;;;;;;9.00;7.50;;;;;12.58;100.00;101497.22;5003268;28;46039;-81
2022/02/24 01:20:10;;;;;;;;;13.25;9.50;;;;;12.56;100.00;101514.47;5076958;28;45512;-81
2022/02/24 01:22:36;;;;;;;;;8.00;8.00;;;;;12.54;100.00;101510.91;4971628;28;45348;-82
2022/02/24 01:25:03;;;;;;;;;12.25;11.50;;;;;12.54;100.00;101516.97;4975213;28;46222;-82
2022/02/24 01:27:33;;;;;;;;;13.25;8.50;;;;;12.55;100.00;101512.69;5008806;28;46042;-82
2022/02/24 01:29:58;;;;;;;;;8.50;8.50;;;;;12.53;100.00;101509.97;5005219;28;45461;-82
2022/02/24 01:32:25;;;;;;;;;10.50;9.00;;;;;12.52;100.00;101503.03;4982460;28;45423;-82
2022/02/24 01:34:59;;;;;;;;;14.25;8.50;;;;;12.52;100.00;101509.94;5030490;28;46495;-82
2022/02/24 01:37:28;;;;;;;;;9.25;7.50;;;;;12.48;100.00;101495.00;5076606;28;45926;-82
2022/02/24 01:39:54;;;;;;;;;11.00;8.00;;;;;12.46;100.00;101494.94;5031378;28;45444;-82
2022/02/24 01:42:20;;;;;;;;;9.00;8.25;;;;;12.41;100.00;101500.72;5018191;28;45470;-81
2022/02/24 01:44:48;;;;;;;;;14.50;11.50;;;;;12.35;100.00;101489.25;5029251;28;47170;-82
2022/02/24 01:47:14;;;;;;;;;9.50;9.25;;;;;12.32;100.00;101489.09;5016746;28;45866;-82
2022/02/24 01:49:42;;;;;;;;;11.25;10.00;;;;;12.31;100.00;101479.50;5077272;28;45432;-82
2022/02/24 01:52:10;;;;;;;;;13.75;10.75;;;;;12.32;100.00;101475.19;5000284;28;45147;-82
2022/02/24 01:54:37;;;;;;;;;13.00;12.00;;;;;12.29;100.00;101477.66;5051913;28;45903;-82
2022/02/24 01:57:03;;;;;;;;;10.00;9.00;;;;;12.29;100.00;101478.53;5039839;28;45955;-82
2022/02/24 01:59:29;;;;;;;;;12.75;10.00;;;;;12.31;100.00;101471.72;4980554;28;45421;-82
2022/02/24 02:01:56;;;;;;;;;11.00;9.00;;;;;12.30;100.00;101454.34;5046557;28;45435;-82
2022/02/24 02:04:24;;;;;;;;;13.00;11.25;;;;;12.35;100.00;101447.69;5077151;28;45805;-82
2022/02/24 02:06:50;;;;;;;;;10.50;8.50;;;;;12.38;100.00;101455.59;5052669;28;45655;-82
2022/02/24 02:09:18;;;;;;;;;10.50;9.00;;;;;12.41;100.00;101453.97;4975634;28;45284;-81
2022/02/24 02:11:44;;;;;;;;;9.00;9.00;;;;;12.37;100.00;101433.03;5030405;28;45528;-81
2022/02/24 02:14:11;;;;;;;;;10.00;8.75;;;;;12.40;100.00;101432.31;5052959;28;46192;-81
2022/02/24 02:16:45;;;;;;;;;10.75;8.00;;;;;12.42;100.00;101422.00;4974497;28;45458;-82
2022/02/24 02:19:12;;;;;;;;;11.50;8.75;;;;;12.43;100.00;101428.97;4974540;28;45756;-81
2022/02/24 02:21:38;;;;;;;;;4.00;3.00;;;;;12.42;100.00;101416.81;5011559;28;45268;-81
2022/02/24 02:24:04;;;;;;;;;13.75;9.75;;;;;12.46;100.00;101413.56;5037112;28;46250;-81
2022/02/24 02:26:33;;;;;;;;;13.50;10.75;;;;;12.46;100.00;101409.22;4974866;28;45449;-81
2022/02/24 02:29:04;;;;;;;;;11.50;10.00;;;;;12.46;100.00;101416.16;4984398;28;45565;-81
2022/02/24 02:31:30;;;;;;;;;11.00;8.50;;;;;12.43;100.00;101416.88;4966343;28;45543;-81
2022/02/24 02:34:06;;;;;;;;;11.50;10.00;;;;;12.42;100.00;101422.00;4980499;28;45556;-81
2022/02/24 02:36:32;;;;;;;;;12.75;12.75;;;;;12.38;100.00;101403.66;4986757;28;45986;-80
2022/02/24 02:38:58;;;;;;;;;14.75;12.75;;;;;12.40;100.00;101411.56;5075807;28;45441;-81
2022/02/24 02:41:31;;;;;;;;;13.00;10.75;;;;;12.38;100.00;101401.06;5040041;28;45420;-82
2022/02/24 02:43:58;;;;;;;;;17.75;12.75;;;;;12.42;100.00;101398.63;4974288;28;45424;-80
2022/02/24 02:46:24;;;;;;;;;6.75;6.25;;;;;12.42;100.00;101406.41;4974679;28;45898;-81
2022/02/24 02:48:50;;;;;;;;;11.25;9.00;;;;;12.43;100.00;101403.00;4975110;28;45367;-80
2022/02/24 02:51:16;;;;;;;;;11.50;9.75;;;;;12.44;100.00;101403.06;5006180;28;45400;-80
2022/02/24 02:53:43;;;;;;;;;12.75;11.00;;;;;12.47;100.00;101391.97;5080076;28;45844;-82
2022/02/24 02:56:08;;;;;;;;;11.25;9.75;;;;;12.48;100.00;101394.63;5080234;28;45698;-81
2022/02/24 02:58:34;;;;;;;;;9.75;8.75;;;;;12.49;100.00;101387.69;5079259;28;45205;-81
2022/02/24 03:01:00;;;;;;;;;9.25;9.00;;;;;12.48;100.00;101385.91;5036584;28;45406;-82
2022/02/24 03:03:25;;;;;;;;;11.25;9.00;;;;;12.51;100.00;101380.88;5078857;28;45565;-82
2022/02/24 03:05:55;;;;;;;;;11.00;9.00;;;;;12.52;100.00;101373.16;5077831;28;45536;-81
2022/02/24 03:08:22;;;;;;;;;9.50;9.50;;;;;12.50;100.00;101367.00;5060998;28;45548;-82
2022/02/24 03:10:48;;;;;;;;;8.75;7.25;;;;;12.47;100.00;101373.78;5016004;28;45501;-82
2022/02/24 03:13:14;;;;;;;;;10.75;8.75;;;;;12.45;100.00;101376.28;5079005;28;46066;-82
2022/02/24 03:15:41;;;;;;;;;11.75;8.75;;;;;12.41;100.00;101363.09;5080144;28;45856;-82
2022/02/24 03:18:07;;;;;;;;;7.25;6.25;;;;;12.39;100.00;101361.31;5061931;28;45442;-82
2022/02/24 03:20:32;;;;;;;;;8.25;8.25;;;;;12.42;100.00;101364.88;4999537;28;45369;-81
2022/02/24 03:23:03;;;;;;;;;9.00;7.50;;;;;12.40;100.00;101351.81;4984409;28;45550;-82
2022/02/24 03:25:30;;;;;;;;;12.25;8.00;;;;;12.41;100.00;101357.91;4977209;28;45509;-82
2022/02/24 03:27:56;;;;;;;;;10.00;8.25;;;;;12.42;100.00;101351.88;4976555;28;45365;-82
2022/02/24 03:30:26;;;;;;;;;10.00;8.00;;;;;12.41;100.00;101352.69;4976946;28;45366;-81
2022/02/24 03:32:51;;;;;;;;;9.75;7.25;;;;;12.37;100.00;101352.56;4987286;28;45499;-81
2022/02/24 03:35:19;;;;;;;;;8.00;8.00;;;;;12.32;100.00;101345.38;4989423;28;45418;-82
2022/02/24 03:37:45;;;;;;;;;8.50;7.50;;;;;12.31;100.00;101349.69;4977356;28;45360;-82
2022/02/24 03:40:13;;;;;;;;;13.75;9.75;;;;;12.32;100.00;101345.38;4976647;28;45357;-82
2022/02/24 03:42:39;;;;;;;;;8.50;8.50;;;;;12.31;100.00;101339.28;5043799;28;46483;-82
2022/02/24 03:45:06;;;;;;;;;9.50;9.00;;;;;12.32;100.00;101342.78;5017765;28;45549;-82
2022/02/24 03:47:31;;;;;;;;;7.75;7.00;;;;;12.28;100.00;101331.34;5012165;28;45475;-82
2022/02/24 03:49:57;;;;;;;;;8.50;8.00;;;;;12.21;100.00;101330.19;4981127;28;45611;-82
2022/02/24 03:52:23;;;;;;;;;11.75;10.50;;;;;12.20;100.00;101327.53;4988367;28;45966;-82
2022/02/24 03:54:49;;;;;;;;;8.00;7.75;;;;;12.19;100.00;101320.56;4976467;28;45194;-81
2022/02/24 03:57:15;;;;;;;;;8.00;7.00;;;;;12.17;100.00;101311.81;4996062;28;45235;-81
2022/02/24 03:59:42;;;;;;;;;6.25;5.50;;;;;12.14;100.00;101296.09;4978563;28;45443;-81
2022/02/24 04:02:08;;;;;;;;;7.50;6.75;;;;;12.10;100.00;101300.25;5021051;28;45541;-82
2022/02/24 04:04:35;;;;;;;;;11.00;8.00;;;;;12.06;100.00;101295.75;5077606;28;45366;-81
2022/02/24 04:07:01;;;;;;;;;7.25;5.50;;;;;12.03;100.00;101291.31;5077008;28;45430;-81
2022/02/24 04:09:27;;;;;;;;;7.00;6.50;;;;;11.97;100.00;101290.97;5011684;28;45466;-82
2022/02/24 04:11:53;;;;;;;;;6.50;5.75;;;;;11.94;100.00;101288.22;4992586;28;45483;-80
2022/02/24 04:14:19;;;;;;;;;10.00;7.25;;;;;11.91;100.00;101294.16;4973107;28;45237;-80
2022/02/24 04:16:45;;;;;;;;;4.25;4.25;;;;;11.92;100.00;101289.88;4961492;28;45371;-80
2022/02/24 04:19:10;;;;;;;;;3.25;3.25;;;;;11.89;100.00;101290.59;4975402;28;45594;-81
2022/02/24 04:21:36;;;;;;;;;5.00;5.00;;;;;11.82;98.94;101290.25;4961681;28;46836;-80
2022/02/24 04:24:03;;;;;;;;;6.50;5.50;;;;;11.77;98.89;101287.44;4964984;28;45530;-82
2022/02/24 04:26:28;;;;;;;;;5.75;5.00;;;;;11.82;98.33;101291.13;4985982;28;45485;-82
2022/02/24 04:28:54;;;;;;;;;5.25;5.00;;;;;11.81;98.31;101288.50;4980970;28;45565;-82
2022/02/24 04:31:20;;;;;;;;;5.50;5.00;;;;;11.82;97.89;101295.47;4979320;28;46057;-81
2022/02/24 04:33:45;;;;;;;;;5.00;3.25;;;;;11.81;97.55;101294.53;4978988;28;45467;-82
2022/02/24 04:36:11;;;;;;;;;4.75;4.00;;;;;11.76;96.38;101283.09;4983139;28;45469;-82
2022/02/24 04:38:37;;;;;;;;;7.75;4.00;;;;;11.76;96.27;101290.88;5037552;28;45802;-81
2022/02/24 04:41:03;;;;;;;;;4.00;3.00;;;;;11.73;95.42;101295.91;4977328;28;45475;-81
2022/02/24 04:43:29;;;;;;;;;3.50;3.50;;;;;11.71;95.26;101292.34;5019272;28;45350;-81
2022/02/24 04:45:54;;;;;;;;;5.50;5.00;;;;;11.67;95.52;101285.22;4999166;28;45386;-80
2022/02/24 04:48:21;;;;;;;;;6.25;4.00;;;;;11.64;95.92;101283.38;5078927;28;45531;-80
2022/02/24 04:50:47;;;;;;;;;7.00;5.00;;;;;11.61;95.52;101280.63;5035807;28;45650;-81
2022/02/24 04:53:14;;;;;;;;;6.00;4.25;;;;;11.59;95.14;101275.38;5057514;28;45985;-81
2022/02/24 04:55:40;;;;;;;;;5.00;3.75;;;;;11.57;94.76;101281.31;4975843;28;45374;-81
2022/02/24 04:58:07;;;;;;;;;4.25;2.75;;;;;11.52;93.59;101275.91;5050880;28;45531;-81
2022/02/24 05:00:33;;;;;;;;;5.00;4.50;;;;;11.51;94.25;101283.59;5047655;28;45367;-81
2022/02/24 05:02:59;;;;;;;;;5.75;4.25;;;;;11.49;93.86;101280.94;4995632;28;45455;-81
2022/02/24 05:05:25;;;;;;;;;5.50;4.00;;;;;11.44;93.18;101272.06;4974105;28;45304;-81
2022/02/24 05:07:50;;;;;;;;;7.75;4.00;;;;;11.38;92.62;101271.72;5071752;28;45457;-81
2022/02/24 05:10:16;;;;;;;;;4.50;3.50;;;;;11.39;92.64;101269.19;5074380;28;46716;-81
2022/02/24 05:12:43;;;;;;;;;4.00;3.50;;;;;11.37;92.23;101269.94;5061072;28;45353;-81
2022/02/24 05:15:09;;;;;;;;;3.00;3.00;;;;;11.34;92.25;101275.88;5057793;28;45342;-81
2022/02/24 05:17:36;;;;;;;;;5.00;4.00;;;;;11.30;92.13;101268.75;5019235;28;45671;-81
2022/02/24 05:20:03;;;;;;;;;6.00;4.75;;;;;11.31;92.10;101273.13;4989133;28;46410;-81
2022/02/24 05:22:29;;;;;;;;;3.00;3.00;;;;;11.29;92.34;101265.28;5005934;28;45532;-80
2022/02/24 05:24:54;;;;;;;;;3.00;3.00;;;;;11.29;92.17;101256.59;4975915;28;45242;-81
2022/02/24 05:27:20;;;;;;;;;5.75;4.25;;;;;11.33;92.04;101262.84;4975903;28;45203;-81
2022/02/24 05:29:46;;;;;;;;;4.50;3.50;;;;;11.32;91.40;101259.38;5039281;28;46512;-81
2022/02/24 05:32:12;;;;;;;;;5.00;3.00;;;;;11.31;91.33;101265.34;4988483;28;46980;-84
2022/02/24 05:34:37;;;;;;;;;4.25;3.50;;;;;11.28;90.88;101260.91;4974167;28;45374;-82
2022/02/24 05:37:03;;;;;;;;;2.75;2.75;;;;;11.20;90.69;101258.75;4976207;28;45321;-81
2022/02/24 05:39:29;;;;;;;;;5.50;5.50;;;;;11.18;90.57;101261.28;4975278;28;46187;-81
2022/02/24 05:41:55;;;;;;;;;6.00;4.00;;;;;11.13;90.53;101255.88;4984259;28;45483;-81
2022/02/24 05:44:20;;;;;;;;;7.00;4.00;;;;;11.12;90.90;101259.28;4981161;28;45590;-81
2022/02/24 05:46:46;;;;;;;;;4.00;3.50;;;;;11.08;90.03;101259.03;4985762;28;45518;-81
2022/02/24 05:49:15;;;;;;;;;4.00;3.00;;;;;11.03;89.46;101258.81;4975115;28;45437;-82
2022/02/24 05:51:41;;;;;;;;;3.75;3.75;;;;;11.01;90.14;101260.44;4973970;28;45536;-81
2022/02/24 05:54:07;;;;;;;;;3.50;3.00;;;;;10.97;89.77;101250.72;4973350;28;45310;-82
2022/02/24 05:56:33;;;;;;;;;4.50;3.00;;;;;10.93;89.20;101251.41;4980983;28;45413;-81
2022/02/24 05:58:59;;;;;;;;;6.25;2.00;;;;;10.88;89.03;101243.41;4974832;28;46183;-81
2022/02/24 06:01:24;;;;;;;;;5.00;4.00;;;;;10.85;88.98;101238.06;4989796;28;45445;-81
2022/02/24 06:03:50;;;;;;;;;3.75;2.75;;;;;10.82;89.33;101233.63;4974080;28;45353;-82
2022/02/24 06:06:16;;;;;;;;;2.75;2.00;;;;;10.82;88.59;101241.38;4982560;28;45609;-81
2022/02/24 06:08:41;;;;;;;;;4.00;3.00;;;;;10.76;88.94;101241.06;4986710;28;46325;-82
2022/02/24 06:11:07;;;;;;;;;4.00;1.50;;;;;10.73;88.47;101232.25;4973378;28;45419;-82
2022/02/24 06:13:32;;;;;;;;;2.50;2.50;;;;;10.71;88.93;101236.44;4989326;28;45355;-82
2022/02/24 06:16:00;;;;;;;;;6.00;3.00;;;;;10.68;89.04;101229.41;4978079;28;45269;-82
2022/02/24 06:18:26;;;;;;;;;4.25;2.25;;;;;10.64;89.00;101227.47;4999212;28;45855;-82
2022/02/24 06:20:51;;;;;;;;;3.50;2.00;;;;;10.60;88.96;101225.56;4974445;28;45351;-82
2022/02/24 06:23:17;;;;;;;;;2.00;2.00;;;;;10.61;89.42;101219.56;4979240;28;45473;-81
2022/02/24 06:25:43;;;;;;;;;5.00;2.75;;;;;10.60;88.78;101221.25;4972579;28;45978;-81
2022/02/24 06:28:08;;;;;;;;;3.25;1.50;;;;;10.59;88.90;101218.59;4972284;28;46654;-81
2022/02/24 06:30:34;;;;;;;;;4.50;2.75;;;;;10.55;87.89;101214.06;4974846;28;45415;-82
2022/02/24 06:33:01;;;;;;;;;3.00;3.00;;;;;10.56;88.34;101208.06;4990803;28;45619;-82
2022/02/24 06:35:26;;;;;;;;;5.00;3.75;;;;;10.55;88.24;101211.47;4978415;28;45591;-82
2022/02/24 06:37:52;;;;;;;;;4.25;1.75;;;;;10.56;88.33;101216.75;5015658;28;45660;-82
2022/02/24 06:40:18;;;;;;;;;6.00;3.25;;;;;10.58;88.48;101224.59;4973126;28;45481;-82
2022/02/24 06:42:45;;;;;;;;;6.75;3.75;;;;;10.56;87.48;101221.03;4979680;28;45506;-95
2022/02/24 06:45:11;;;;;;;;;6.50;1.00;;;;;10.57;87.21;101226.31;4972266;28;45941;-82
2022/02/24 06:47:38;;;;;;;;;2.50;2.00;;;;;10.51;86.97;101218.19;4982502;28;45694;-84
2022/02/24 06:50:05;;;;;;;;;3.25;2.00;;;;;10.56;87.25;101226.19;4957247;28;46352;-85
2022/02/24 06:52:31;;;;;;;;;5.25;3.50;;;;;10.57;87.12;101220.22;4994469;28;45400;-86
2022/02/24 06:54:57;;;;;;;;;3.75;2.00;;;;;10.52;87.52;101218.31;4975165;28;45251;-87
2022/02/24 06:57:23;;;;;;;;;2.00;2.00;;;;;10.54;86.69;101226.13;4991887;28;46251;-84
2022/02/24 06:59:48;;;;;;;;;3.75;3.00;;;;;10.44;86.76;101211.81;4961379;28;45935;-87
2022/02/24 07:02:14;;;;;;;;;5.75;2.50;;;;;10.46;86.91;101220.56;4980162;28;45303;-85
2022/02/24 07:04:39;;;;;;;;;2.50;2.00;;;;;10.44;87.32;101216.13;4992003;28;45390;-82
2022/02/24 07:07:05;;;;;;;;;2.00;2.00;;;;;10.49;87.11;101222.41;4992896;28;45961;-82
2022/02/24 07:09:31;;;;;;;;;3.75;2.00;;;;;10.47;87.65;101232.69;4984581;28;45527;-80
2022/02/24 07:11:57;;;;;;;;;3.00;3.00;;;;;10.47;87.37;101240.47;4973798;28;46554;-81
2022/02/24 07:14:23;;;;;;;;;5.50;2.00;;;;;10.47;87.27;101242.16;4980652;28;45641;-80
2022/02/24 07:16:49;;;;;;;;;4.25;1.25;;;;;10.47;87.46;101234.41;4978917;28;45653;-81
2022/02/24 07:19:15;;;;;;;;;7.75;5.00;;;;;10.47;87.36;101248.22;4971882;28;45330;-81
2022/02/24 07:21:41;;;;;;;;;2.50;2.00;;;;;10.46;87.85;101238.66;4980014;28;45433;-79
2022/02/24 07:24:07;;;;;;;;;3.50;3.50;;;;;10.52;87.62;101238.09;4971642;28;45575;-80
2022/02/24 07:26:33;;;;;;;;;5.50;3.50;;;;;10.52;88.05;101243.28;4971171;28;45581;-80
2022/02/24 07:28:59;;;;;;;;;2.75;2.00;;;;;10.55;88.09;101242.53;4971412;28;45445;-80
2022/02/24 07:31:25;;;;;;;;;6.00;3.50;;;;;10.56;88.09;101234.88;4972175;28;45391;-80
2022/02/24 07:33:50;;;;;;;;;2.00;1.00;;;;;10.58;87.43;101237.53;4972539;28;45452;-80
2022/02/24 07:36:16;;;;;;;;;3.00;3.00;;;;;10.61;87.73;101232.53;4973315;28;46230;-81
2022/02/24 07:38:43;;;;;;;;;5.50;4.75;;;;;10.59;87.07;101239.31;4974966;28;45322;-80
2022/02/24 07:41:09;;;;;;;;;1.00;1.00;;;;;10.55;87.10;101224.41;4974601;28;45505;-80
2022/02/24 07:43:36;;;;;;;;;4.25;2.00;;;;;10.50;87.15;101230.28;4975855;28;45411;-80
2022/02/24 07:46:03;;;;;;;;;4.00;3.75;;;;;10.48;87.03;101220.63;4974812;28;46331;-80
2022/02/24 07:48:29;;;;;;;;;2.25;1.00;;;;;10.47;87.26;101211.97;4974907;28;46024;-80
2022/02/24 07:50:55;;;;;;;;;5.75;3.25;;;;;10.44;87.03;101219.56;4975318;28;45331;-80
2022/02/24 07:53:22;;;;;;;;;4.50;3.50;;;;;10.45;86.64;101213.59;4975931;28;45419;-80
2022/02/24 07:55:49;;;;;;;;;7.50;3.75;;;;;10.42;87.19;101207.38;4977168;28;45460;-80
2022/02/24 07:58:15;;;;;;;;;5.50;4.00;;;;;10.46;87.21;101205.03;4983098;28;45767;-80
2022/02/24 08:00:41;;;;;;;;;2.25;2.25;;;;;10.49;86.74;101210.38;4975706;28;45263;-80
2022/02/24 08:03:06;;;;;;;;;5.25;3.50;;;;;10.49;86.76;101200.00;4975323;28;45323;-80
2022/02/24 08:05:32;;;;;;;;;4.00;2.25;;;;;10.50;86.48;101185.34;4975543;28;45251;-85
2022/02/24 08:07:58;;;;;;;;;3.25;1.00;;;;;10.51;86.42;101213.94;4975376;28;45680;-84
2022/02/24 08:10:24;;;;;;;;;4.00;2.25;;;;;10.56;85.94;101205.50;4976027;28;45348;-82
2022/02/24 08:12:50;;;;;;;;;4.25;2.75;;;;;10.52;86.20;101200.19;4975894;28;45354;-82
2022/02/24 08:15:21;;;;;;;;;4.50;3.00;;;;;10.57;86.08;101215.94;4977531;28;46130;-86
2022/02/24 08:17:47;;;;;;;;;5.50;1.75;;;;;10.59;85.71;101209.13;4976410;28;45457;-86
2022/02/24 08:20:14;;;;;;;;;3.75;2.00;;;;;10.62;85.78;101209.28;4972578;28;45410;-85
2022/02/24 08:22:45;;;;;;;;;6.75;3.00;;;;;10.63;85.71;101225.72;4944995;28;45395;-87
2022/02/24 08:25:13;;;;;;;;;4.25;3.00;;;;;10.65;85.49;101204.28;4944606;28;47834;-88
2022/02/24 08:27:39;;;;;;;;;3.00;2.75;;;;;10.66;85.13;101198.28;4942228;28;45748;-88
2022/02/24 08:30:10;;;;;;;;;1.75;1.75;;;;;10.71;84.87;101203.69;4959022;28;45430;-85
2022/02/24 08:32:40;;;;;;;;;2.50;1.00;;;;;10.69;85.62;101197.53;4978649;28;45248;-83
2022/02/24 08:35:08;;;;;;;;;2.75;2.75;;;;;10.71;85.25;101203.69;4975202;28;46699;-85
2022/02/24 08:37:34;;;;;;;;;2.25;2.00;;;;;10.68;84.68;101208.72;4977650;28;45371;-81
2022/02/24 08:40:00;;;;;;;;;6.75;3.50;;;;;10.68;85.51;101199.25;4975692;28;45485;-81
2022/02/24 08:42:26;;;;;;;;;2.75;2.00;;;;;10.69;85.19;101200.13;4976297;28;45549;-83
2022/02/24 08:44:53;;;;;;;;;3.50;2.50;;;;;10.70;85.99;101204.50;4976023;28;46084;-92
2022/02/24 08:47:19;;;;;;;;;3.00;1.00;;;;;10.69;86.56;101192.38;4965117;28;45271;-85
2022/02/24 08:49:46;;;;;;;;;2.00;1.75;;;;;10.69;87.16;101198.41;4981449;28;45441;-95
2022/02/24 08:52:12;;;;;;;;;4.00;1.50;;;;;10.66;87.90;101202.56;4963947;28;45654;-87
2022/02/24 08:54:38;;;;;;;;;3.50;3.00;;;;;10.73;88.87;101217.63;4982190;28;46560;-93
2022/02/24 08:57:05;;;;;;;;;4.75;3.00;;;;;10.74;89.70;101197.78;4976897;28;45370;-86
2022/02/24 08:59:31;;;;;;;;;4.00;2.00;;;;;10.76;90.06;101212.56;4980122;28;44813;-84
2022/02/24 09:01:57;;;;;;;;;1.00;1.00;;;;;10.69;90.54;101220.84;4975702;28;45378;-86
2022/02/24 09:04:23;;;;;;;;;1.25;1.00;;;;;10.70;91.32;101199.31;4958415;28;46912;-84
2022/02/24 09:06:50;;;;;;;;;2.75;2.00;;;;;10.71;91.42;101210.56;4957274;28;45897;-84
2022/02/24 09:09:16;;;;;;;;;2.25;2.00;;;;;10.68;91.94;101216.47;4975153;28;45352;-82
2022/02/24 09:11:43;;;;;;;;;5.25;3.00;;;;;10.69;92.26;101208.78;4957728;28;45602;-81
2022/02/24 09:14:09;;;;;;;;;2.00;1.75;;;;;10.75;92.39;101207.31;4974479;28;45458;-82
2022/02/24 09:16:35;;;;;;;;;2.50;1.00;;;;;10.80;91.71;101206.75;4974713;28;45322;-83
2022/02/24 09:19:01;;;;;;;;;5.25;2.50;;;;;10.83;91.81;101211.19;4974757;28;45276;-85
2022/02/24 09:21:27;;;;;;;;;2.25;2.00;;;;;10.86;91.30;101195.78;4960632;28;45305;-87
2022/02/24 09:23:52;;;;;;;;;4.00;2.00;;;;;10.95;91.02;101201.44;4975156;28;45228;-85
2022/02/24 09:26:18;;;;;;;;;4.00;2.00;;;;;10.97;91.31;101217.03;4976215;28;45251;-83
2022/02/24 09:28:44;;;;;;;;;4.00;2.25;;;;;11.01;91.25;101192.19;4974419;28;45854;-86
2022/02/24 09:31:10;;;;;;;;;2.00;1.75;;;;;11.01;91.15;101218.97;4974589;28;45244;-82
2022/02/24 09:33:36;;;;;;;;;2.00;2.00;;;;;10.97;91.53;101212.75;4974007;28;46003;-83
2022/02/24 09:36:03;;;;;;;;;0.25;0.25;;;;;10.98;92.57;101185.13;4974331;28;45488;-84
2022/02/24 09:38:29;;;;;;;;;1.25;1.00;;;;;11.07;92.42;101184.72;4974395;28;45457;-83
2022/02/24 09:40:56;;;;;;;;;2.75;1.75;;;;;11.11;92.83;101184.06;4974374;28;45692;-82
2022/02/24 09:43:28;;;;;;;;;3.75;2.00;;;;;11.14;92.59;101177.31;4974498;28;45256;-88
2022/02/24 09:46:00;;;;;;;;;1.50;0.75;;;;;11.11;93.28;101182.34;4975658;28;45577;-93
2022/02/24 09:48:29;;;;;;;;;2.25;2.25;;;;;11.13;93.77;101177.22;4983929;28;45544;-85
2022/02/24 09:50:56;;;;;;;;;1.25;1.25;;;;;11.19;94.22;101182.72;4976668;28;45526;-88
2022/02/24 09:53:27;;;;;;;;;4.00;2.00;;;;;11.27;93.89;101163.22;4976478;28;45234;-91
2022/02/24 09:55:54;;;;;;;;;1.75;1.75;;;;;11.36;93.36;101161.88;4976259;28;45469;-82
2022/02/24 09:58:21;;;;;;;;;1.75;1.00;;;;;11.44;93.20;101163.16;4956614;28;45494;-86
2022/02/24 10:00:48;;;;;;;;;1.00;1.00;;;;;11.51;92.80;101144.47;4973884;28;45478;-86
2022/02/24 10:03:40;;;;;;;;;3.00;2.00;;;;;11.57;92.33;101165.47;4973643;28;46281;-84
2022/02/24 10:06:11;;;;;;;;;2.50;1.50;;;;;11.59;90.87;101160.38;4973642;28;45760;-82
2022/02/24 10:08:50;;;;;;;;;2.50;1.75;;;;;11.54;90.36;101155.00;4974829;28;45316;-85
2022/02/24 10:11:21;;;;;;;;;3.25;2.25;;;;;11.46;90.44;101143.34;4974745;28;45488;-88
2022/02/24 10:14:07;;;;;;;;;2.75;1.50;;;;;11.43;91.11;101143.22;4977248;28;45486;-91
2022/02/24 10:16:51;;;;;;;;;1.75;1.75;;;;;11.41;90.65;101175.97;4979028;28;45268;-86
2022/02/24 10:19:25;;;;;;;;;2.50;1.50;;;;;11.37;90.80;101143.84;4967118;28;45603;-92
2022/02/24 10:22:19;;;;;;;;;2.25;1.25;;;;;11.32;91.67;101145.31;4984966;28;45157;-90
2022/02/24 10:24:54;;;;;;;;;2.00;2.00;;;;;11.28;92.03;101165.00;4960968;28;47393;-85
2022/02/24 10:27:22;;;;;;;;;3.00;2.00;;;;;11.26;91.91;101139.84;4957261;28;45710;-83
2022/02/24 10:30:16;;;;;;;;;3.50;2.50;;;;;11.23;92.37;101150.94;4974634;28;45509;-86
2022/02/24 10:32:48;;;;;;;;;3.50;2.00;;;;;11.21;92.38;101139.63;4976121;28;45284;-86
2022/02/24 10:35:40;;;;;;;;;3.00;1.00;;;;;11.25;92.76;101149.31;4992727;28;46733;-84
2022/02/24 10:38:12;;;;;;;;;1.50;0.25;;;;;11.29;92.92;101147.75;4973078;28;45858;-84
2022/02/24 10:40:45;;;;;;;;;2.75;1.75;;;;;11.29;92.80;101127.00;4974013;28;45323;-84
2022/02/24 10:43:15;;;;;;;;;1.75;1.75;;;;;11.29;92.62;101145.16;4977881;28;45504;-86
2022/02/24 10:45:44;;;;;;;;;3.00;1.00;;;;;11.32;93.02;101119.38;4973988;28;45434;-86
2022/02/24 10:48:10;;;;;;;;;3.00;3.00;;;;;11.35;93.04;101123.81;4972674;28;45729;-85
2022/02/24 10:50:51;;;;;;;;;1.00;1.00;;;;;11.33;92.88;101121.16;4972813;28;45220;-88
2022/02/24 10:53:34;;;;;;;;;1.50;1.00;;;;;11.35;93.81;101116.94;4973164;28;45260;-87
2022/02/24 10:56:09;;;;;;;;;1.50;1.00;;;;;11.39;93.31;101103.28;4988099;28;47572;-84
2022/02/24 10:58:44;;;;;;;;;1.00;1.00;;;;;11.44;94.27;101095.75;4972809;28;45491;-84
2022/02/24 11:01:20;;;;;;;;;1.00;1.00;;;;;11.53;94.43;101113.41;4972925;28;45502;-82
2022/02/24 11:03:54;;;;;;;;;0.75;0.75;;;;;11.54;94.56;101099.63;4963108;28;45474;-85
2022/02/24 11:06:22;;;;;;;;;1.00;0.50;;;;;11.56;94.30;101095.41;4971579;28;46745;-87
2022/02/24 11:08:49;;;;;;;;;2.00;1.50;;;;;11.60;94.41;101100.78;4997306;28;45227;-87
2022/02/24 11:11:26;;;;;;;;;1.75;1.50;;;;;11.61;94.36;101099.06;4985915;28;45461;-79
2022/02/24 11:13:54;;;;;;;;;1.50;0.75;;;;;11.64;93.85;101075.00;4975497;28;45446;-82
2022/02/24 11:16:21;;;;;;;;;2.25;0.00;;;;;11.71;94.00;101080.53;4975593;28;46152;-83
2022/02/24 11:18:47;;;;;;;;;2.50;1.00;;;;;11.74;93.96;101066.81;4974310;28;45249;-82
2022/02/24 11:21:14;;;;;;;;;1.00;1.00;;;;;11.76;94.61;101086.81;4976359;28;45463;-87